Parks Crossroads, North Carolina
Current Conditions -  °F | °C
As of 8:35 PM on Wednesday 22 Oct 2014 (Local Time) from K5W8 Reporting Station
Clear Clear  
Wind Chill: 11°   Ceiling: Unl
Heat Index: 11°   Visibility: 10mi
Dew Point:   Wind: 3mph
Humidity: 68%   Direction: 310°NW
Pressure: 30.03"   Gusts: NA
Location:  35.6832°N, 79.6174°W
Report Text: K5W8 230035Z AUTO 31003KT 10SM CLR 11/05 A3003 RMK AO2 T01090051
Loading
Personal Weather Stations






























Interactive Weather Map
Tropical Storm Tracking
New forecast layout! Learn more

10-Day Weather Forecast

Advertisements
Track Severe Weather on mobile